sensor_id;sensor_type;location;lat;lon;timestamp;P1;durP1;ratioP1;P2;durP2;ratioP2
20314;SDS011;10315;50.958;13.080;2023-07-02T00:02:58;4.78;;;3.03;;
20314;SDS011;10315;50.958;13.080;2023-07-02T00:13:03;3.50;;;3.20;;
20314;SDS011;10315;50.958;13.080;2023-07-02T00:23:05;3.58;;;3.17;;
20314;SDS011;10315;50.958;13.080;2023-07-02T00:33:09;6.50;;;3.15;;
20314;SDS011;10315;50.958;13.080;2023-07-02T00:43:12;3.60;;;2.75;;
20314;SDS011;10315;50.958;13.080;2023-07-02T00:53:14;6.18;;;2.75;;
20314;SDS011;10315;50.958;13.080;2023-07-02T01:03:17;3.22;;;2.30;;
20314;SDS011;10315;50.958;13.080;2023-07-02T01:13:19;4.22;;;2.72;;
20314;SDS011;10315;50.958;13.080;2023-07-02T01:23:25;2.72;;;2.53;;
20314;SDS011;10315;50.958;13.080;2023-07-02T01:33:27;4.25;;;2.50;;
20314;SDS011;10315;50.958;13.080;2023-07-02T01:43:30;4.75;;;2.17;;
20314;SDS011;10315;50.958;13.080;2023-07-02T01:53:31;2.75;;;2.15;;
20314;SDS011;10315;50.958;13.080;2023-07-02T02:03:34;3.03;;;2.72;;
20314;SDS011;10315;50.958;13.080;2023-07-02T02:13:36;3.90;;;3.08;;
20314;SDS011;10315;50.958;13.080;2023-07-02T02:23:41;2.65;;;2.45;;
20314;SDS011;10315;50.958;13.080;2023-07-02T02:33:43;5.45;;;2.70;;
20314;SDS011;10315;50.958;13.080;2023-07-02T02:43:46;4.35;;;2.78;;
20314;SDS011;10315;50.958;13.080;2023-07-02T02:53:47;3.15;;;2.20;;
20314;SDS011;10315;50.958;13.080;2023-07-02T03:03:50;3.72;;;2.40;;
20314;SDS011;10315;50.958;13.080;2023-07-02T03:13:52;3.33;;;2.50;;
20314;SDS011;10315;50.958;13.080;2023-07-02T03:23:54;4.47;;;2.55;;
20314;SDS011;10315;50.958;13.080;2023-07-02T03:33:56;4.95;;;3.15;;
20314;SDS011;10315;50.958;13.080;2023-07-02T03:43:59;5.35;;;3.45;;
20314;SDS011;10315;50.958;13.080;2023-07-02T03:54:01;5.30;;;4.32;;
20314;SDS011;10315;50.958;13.080;2023-07-02T04:04:04;4.60;;;3.75;;
20314;SDS011;10315;50.958;13.080;2023-07-02T04:14:05;7.55;;;4.95;;
20314;SDS011;10315;50.958;13.080;2023-07-02T04:24:08;6.10;;;4.53;;
20314;SDS011;10315;50.958;13.080;2023-07-02T04:34:10;6.57;;;4.57;;
20314;SDS011;10315;50.958;13.080;2023-07-02T04:44:13;7.65;;;3.75;;
20314;SDS011;10315;50.958;13.080;2023-07-02T04:54:14;7.57;;;4.32;;
20314;SDS011;10315;50.958;13.080;2023-07-02T05:04:20;6.00;;;5.00;;
20314;SDS011;10315;50.958;13.080;2023-07-02T05:14:22;5.63;;;4.85;;
20314;SDS011;10315;50.958;13.080;2023-07-02T05:24:25;6.25;;;4.53;;
20314;SDS011;10315;50.958;13.080;2023-07-02T05:34:27;5.82;;;4.65;;
20314;SDS011;10315;50.958;13.080;2023-07-02T05:44:30;5.82;;;4.70;;
20314;SDS011;10315;50.958;13.080;2023-07-02T05:54:32;6.30;;;4.32;;
20314;SDS011;10315;50.958;13.080;2023-07-02T06:04:35;7.97;;;4.30;;
20314;SDS011;10315;50.958;13.080;2023-07-02T06:14:36;4.68;;;4.20;;
20314;SDS011;10315;50.958;13.080;2023-07-02T06:24:39;6.45;;;3.95;;
20314;SDS011;10315;50.958;13.080;2023-07-02T06:34:41;5.43;;;4.63;;
20314;SDS011;10315;50.958;13.080;2023-07-02T06:44:44;9.32;;;5.03;;
20314;SDS011;10315;50.958;13.080;2023-07-02T06:54:45;6.88;;;4.03;;
20314;SDS011;10315;50.958;13.080;2023-07-02T07:04:49;3.67;;;3.33;;
20314;SDS011;10315;50.958;13.080;2023-07-02T07:14:50;4.07;;;3.67;;
20314;SDS011;10315;50.958;13.080;2023-07-02T07:24:53;3.25;;;2.70;;
20314;SDS011;10315;50.958;13.080;2023-07-02T07:34:55;3.80;;;2.85;;
20314;SDS011;10315;50.958;13.080;2023-07-02T07:44:58;3.97;;;2.58;;
20314;SDS011;10315;50.958;13.080;2023-07-02T07:54:59;2.22;;;2.08;;
20314;SDS011;10315;50.958;13.080;2023-07-02T08:05:02;1.90;;;1.80;;
20314;SDS011;10315;50.958;13.080;2023-07-02T08:15:05;1.90;;;1.80;;
20314;SDS011;10315;50.958;13.080;2023-07-02T08:25:08;1.95;;;1.70;;
20314;SDS011;10315;50.958;13.080;2023-07-02T08:35:10;5.28;;;1.63;;
20314;SDS011;10315;50.958;13.080;2023-07-02T08:45:15;1.85;;;1.75;;
20314;SDS011;10315;50.958;13.080;2023-07-02T08:55:17;2.63;;;1.55;;
20314;SDS011;10315;50.958;13.080;2023-07-02T09:05:20;1.45;;;1.35;;
20314;SDS011;10315;50.958;13.080;2023-07-02T09:15:25;1.45;;;1.30;;
20314;SDS011;10315;50.958;13.080;2023-07-02T09:25:36;1.20;;;1.10;;
20314;SDS011;10315;50.958;13.080;2023-07-02T09:35:38;4.35;;;1.23;;
20314;SDS011;10315;50.958;13.080;2023-07-02T09:45:43;2.95;;;1.20;;
20314;SDS011;10315;50.958;13.080;2023-07-02T09:55:46;1.20;;;1.20;;
20314;SDS011;10315;50.958;13.080;2023-07-02T10:05:49;1.30;;;1.20;;
20314;SDS011;10315;50.958;13.080;2023-07-02T10:16:00;1.67;;;1.33;;
20314;SDS011;10315;50.958;13.080;2023-07-02T10:26:15;2.15;;;1.20;;
20314;SDS011;10315;50.958;13.080;2023-07-02T10:36:17;1.60;;;1.50;;
20314;SDS011;10315;50.958;13.080;2023-07-02T10:46:22;3.35;;;1.30;;
20314;SDS011;10315;50.958;13.080;2023-07-02T10:56:24;2.17;;;1.42;;
20314;SDS011;10315;50.958;13.080;2023-07-02T11:06:28;2.83;;;1.40;;
20314;SDS011;10315;50.958;13.080;2023-07-02T11:16:30;4.50;;;2.05;;
20314;SDS011;10315;50.958;13.080;2023-07-02T11:26:37;2.35;;;1.67;;
20314;SDS011;10315;50.958;13.080;2023-07-02T11:36:40;6.57;;;2.33;;
20314;SDS011;10315;50.958;13.080;2023-07-02T11:46:43;3.33;;;2.10;;
20314;SDS011;10315;50.958;13.080;2023-07-02T11:56:44;6.10;;;2.10;;
20314;SDS011;10315;50.958;13.080;2023-07-02T12:06:47;8.85;;;2.17;;
20314;SDS011;10315;50.958;13.080;2023-07-02T12:16:49;2.85;;;1.60;;
20314;SDS011;10315;50.958;13.080;2023-07-02T12:26:52;4.75;;;1.92;;
20314;SDS011;10315;50.958;13.080;2023-07-02T12:36:54;7.07;;;2.30;;
20314;SDS011;10315;50.958;13.080;2023-07-02T12:46:56;6.68;;;2.03;;
20314;SDS011;10315;50.958;13.080;2023-07-02T12:56:58;6.75;;;2.05;;
20314;SDS011;10315;50.958;13.080;2023-07-02T13:07:01;4.15;;;2.25;;
20314;SDS011;10315;50.958;13.080;2023-07-02T13:17:03;4.80;;;1.95;;
20314;SDS011;10315;50.958;13.080;2023-07-02T13:27:08;3.85;;;1.88;;
20314;SDS011;10315;50.958;13.080;2023-07-02T13:37:13;4.47;;;2.15;;
20314;SDS011;10315;50.958;13.080;2023-07-02T13:47:19;3.25;;;2.58;;
20314;SDS011;10315;50.958;13.080;2023-07-02T13:57:20;7.30;;;2.60;;
20314;SDS011;10315;50.958;13.080;2023-07-02T14:07:24;6.45;;;3.22;;
20314;SDS011;10315;50.958;13.080;2023-07-02T14:17:26;3.70;;;2.50;;
20314;SDS011;10315;50.958;13.080;2023-07-02T14:27:29;5.25;;;3.30;;
20314;SDS011;10315;50.958;13.080;2023-07-02T14:37:30;5.68;;;3.33;;
20314;SDS011;10315;50.958;13.080;2023-07-02T14:47:33;8.63;;;4.13;;
20314;SDS011;10315;50.958;13.080;2023-07-02T14:57:35;7.90;;;3.97;;
20314;SDS011;10315;50.958;13.080;2023-07-02T15:07:38;7.07;;;4.47;;
20314;SDS011;10315;50.958;13.080;2023-07-02T15:17:53;9.10;;;4.40;;
20314;SDS011;10315;50.958;13.080;2023-07-02T15:27:56;9.95;;;4.65;;
20314;SDS011;10315;50.958;13.080;2023-07-02T15:37:58;8.73;;;4.78;;
20314;SDS011;10315;50.958;13.080;2023-07-02T15:48:01;12.25;;;4.97;;
20314;SDS011;10315;50.958;13.080;2023-07-02T15:58:03;10.77;;;5.13;;
20314;SDS011;10315;50.958;13.080;2023-07-02T16:08:06;9.18;;;5.55;;
20314;SDS011;10315;50.958;13.080;2023-07-02T16:18:08;11.20;;;5.72;;
20314;SDS011;10315;50.958;13.080;2023-07-02T16:28:11;12.00;;;5.57;;
20314;SDS011;10315;50.958;13.080;2023-07-02T16:38:13;12.07;;;6.05;;
20314;SDS011;10315;50.958;13.080;2023-07-02T16:48:16;15.98;;;6.78;;
20314;SDS011;10315;50.958;13.080;2023-07-02T16:58:18;11.15;;;5.82;;
20314;SDS011;10315;50.958;13.080;2023-07-02T17:08:20;11.40;;;5.68;;
20314;SDS011;10315;50.958;13.080;2023-07-02T17:18:22;12.10;;;6.43;;
20314;SDS011;10315;50.958;13.080;2023-07-02T17:28:25;15.60;;;6.18;;
20314;SDS011;10315;50.958;13.080;2023-07-02T17:38:26;15.13;;;7.22;;
20314;SDS011;10315;50.958;13.080;2023-07-02T17:48:29;15.65;;;6.95;;
20314;SDS011;10315;50.958;13.080;2023-07-02T17:58:31;13.05;;;6.90;;
20314;SDS011;10315;50.958;13.080;2023-07-02T18:08:34;18.08;;;7.20;;
20314;SDS011;10315;50.958;13.080;2023-07-02T18:18:35;15.25;;;8.07;;
20314;SDS011;10315;50.958;13.080;2023-07-02T18:28:38;15.23;;;7.00;;
20314;SDS011;10315;50.958;13.080;2023-07-02T18:38:40;15.68;;;7.70;;
20314;SDS011;10315;50.958;13.080;2023-07-02T18:48:43;21.02;;;8.63;;
20314;SDS011;10315;50.958;13.080;2023-07-02T18:58:45;15.45;;;7.10;;
20314;SDS011;10315;50.958;13.080;2023-07-02T19:08:47;15.20;;;7.78;;
20314;SDS011;10315;50.958;13.080;2023-07-02T19:18:49;15.35;;;8.15;;
20314;SDS011;10315;50.958;13.080;2023-07-02T19:28:52;18.95;;;8.10;;
20314;SDS011;10315;50.958;13.080;2023-07-02T19:38:53;17.38;;;7.60;;
20314;SDS011;10315;50.958;13.080;2023-07-02T19:48:56;18.80;;;7.43;;
20314;SDS011;10315;50.958;13.080;2023-07-02T19:58:58;17.40;;;7.22;;
20314;SDS011;10315;50.958;13.080;2023-07-02T20:09:01;18.27;;;8.70;;
20314;SDS011;10315;50.958;13.080;2023-07-02T20:19:03;16.67;;;8.13;;
20314;SDS011;10315;50.958;13.080;2023-07-02T20:29:06;18.70;;;7.43;;
20314;SDS011;10315;50.958;13.080;2023-07-02T20:39:11;20.17;;;7.50;;
20314;SDS011;10315;50.958;13.080;2023-07-02T20:49:15;16.77;;;7.53;;
20314;SDS011;10315;50.958;13.080;2023-07-02T20:59:20;16.92;;;7.20;;
20314;SDS011;10315;50.958;13.080;2023-07-02T21:09:23;17.13;;;7.63;;
20314;SDS011;10315;50.958;13.080;2023-07-02T21:19:27;19.40;;;7.72;;
20314;SDS011;10315;50.958;13.080;2023-07-02T21:29:30;19.80;;;8.45;;
20314;SDS011;10315;50.958;13.080;2023-07-02T21:39:31;20.38;;;7.72;;
20314;SDS011;10315;50.958;13.080;2023-07-02T21:49:34;21.83;;;8.43;;
20314;SDS011;10315;50.958;13.080;2023-07-02T21:59:36;22.33;;;8.63;;
20314;SDS011;10315;50.958;13.080;2023-07-02T22:09:39;20.15;;;8.50;;
20314;SDS011;10315;50.958;13.080;2023-07-02T22:19:41;14.57;;;7.05;;
20314;SDS011;10315;50.958;13.080;2023-07-02T22:29:47;17.63;;;7.90;;
20314;SDS011;10315;50.958;13.080;2023-07-02T22:39:49;21.63;;;8.93;;
20314;SDS011;10315;50.958;13.080;2023-07-02T22:49:52;26.13;;;8.98;;
20314;SDS011;10315;50.958;13.080;2023-07-02T22:59:53;22.13;;;8.98;;
20314;SDS011;10315;50.958;13.080;2023-07-02T23:09:56;18.23;;;8.48;;
20314;SDS011;10315;50.958;13.080;2023-07-02T23:19:58;23.02;;;8.50;;
20314;SDS011;10315;50.958;13.080;2023-07-02T23:30:01;17.95;;;9.27;;
20314;SDS011;10315;50.958;13.080;2023-07-02T23:40:04;26.75;;;9.90;;
20314;SDS011;10315;50.958;13.080;2023-07-02T23:50:10;28.52;;;9.60;;
